Time;durP1;ratioP1;P1;durP2;ratioP2;P2;SDS_P1;SDS_P2;PMS_P1;PMS_P2;Temp;Humidity;BMP_temperature;BMP_pressure;BME280_temperature;BME280_humidity;BME280_pressure;Samples;Min_cycle;Max_cycle;Signal;HPM_P1;HPM_P2
2022/01/29 00:00:23;;;;;;;23.20;10.60;;;;;;;4.30;86.80;101958.36;107913;1278;61762;-77
2022/01/29 00:02:50;;;;;;;24.40;11.80;;;;;;;4.31;87.05;101957.40;108132;1277;75788;-75
2022/01/29 00:05:17;;;;;;;22.50;10.70;;;;;;;4.34;87.26;101956.49;108088;1277;71374;-76
2022/01/29 00:07:44;;;;;;;21.70;11.00;;;;;;;4.36;87.42;101953.22;108098;1277;73126;-75
2022/01/29 00:10:13;;;;;;;26.90;11.60;;;;;;;4.39;87.64;101954.08;108074;1277;63354;-76
2022/01/29 00:12:41;;;;;;;25.90;12.90;;;;;;;4.41;88.23;101952.34;107940;1277;61917;-75
2022/01/29 00:15:08;;;;;;;27.20;12.50;;;;;;;4.45;88.79;101945.62;107802;1277;74341;-76
2022/01/29 00:17:35;;;;;;;24.40;10.40;;;;;;;4.49;89.27;101937.13;107944;1279;72520;-75
2022/01/29 00:20:03;;;;;;;31.70;13.10;;;;;;;4.53;89.58;101926.71;107941;1277;73978;-75
2022/01/29 00:22:30;;;;;;;19.10;9.90;;;;;;;4.56;89.48;101921.89;107838;1277;61959;-77
2022/01/29 00:24:59;;;;;;;34.20;15.30;;;;;;;4.58;89.63;101909.65;107951;1279;61673;-76
2022/01/29 00:27:29;;;;;;;23.40;9.00;;;;;;;4.61;89.65;101906.67;108103;1277;74265;-75
2022/01/29 00:29:56;;;;;;;25.10;12.70;;;;;;;4.62;89.72;101902.73;108104;1277;71362;-75
2022/01/29 00:32:23;;;;;;;32.00;15.10;;;;;;;4.63;89.65;101896.88;108097;1277;73594;-75
2022/01/29 00:34:50;;;;;;;29.10;13.80;;;;;;;4.64;89.48;101894.38;108110;1277;63836;-76
2022/01/29 00:37:16;;;;;;;29.60;14.10;;;;;;;4.63;89.79;101898.97;107890;1278;60654;-76
2022/01/29 00:39:43;;;;;;;31.40;13.90;;;;;;;4.66;89.70;101897.20;108076;1277;74851;-76
2022/01/29 00:42:10;;;;;;;29.70;14.30;;;;;;;4.67;89.74;101886.48;108111;1277;72610;-77
2022/01/29 00:44:43;;;;;;;34.50;17.60;;;;;;;4.68;89.78;101880.45;108072;1277;73098;-76
2022/01/29 00:47:10;;;;;;;29.10;14.40;;;;;;;4.68;89.86;101881.47;108136;1277;62400;-77
2022/01/29 00:49:36;;;;;;;31.60;16.30;;;;;;;4.69;89.95;101878.45;108064;1277;60618;-75
2022/01/29 00:52:04;;;;;;;30.00;12.20;;;;;;;4.68;90.19;101870.08;107933;1277;74938;-77
2022/01/29 00:54:31;;;;;;;30.10;14.20;;;;;;;4.68;90.16;101868.14;107875;1277;71532;-76
2022/01/29 00:57:01;;;;;;;26.80;13.60;;;;;;;4.68;90.23;101863.60;108094;1277;72920;-74
2022/01/29 00:59:27;;;;;;;29.20;14.80;;;;;;;4.69;90.22;101854.60;108071;1277;62801;-77
2022/01/29 01:01:54;;;;;;;31.10;15.50;;;;;;;4.71;90.31;101850.05;108144;1277;60500;-75
2022/01/29 01:04:20;;;;;;;34.60;17.60;;;;;;;4.73;90.10;101841.90;108118;1277;75125;-76
2022/01/29 01:06:49;;;;;;;34.60;15.30;;;;;;;4.74;90.27;101842.71;108114;1277;73182;-76
2022/01/29 01:09:15;;;;;;;34.00;14.70;;;;;;;4.75;90.32;101841.92;107917;1279;72869;-75
2022/01/29 01:11:42;;;;;;;30.50;15.30;;;;;;;4.76;90.32;101834.65;108099;1277;61948;-75
2022/01/29 01:14:09;;;;;;;33.00;15.00;;;;;;;4.77;90.38;101832.34;108075;1277;59064;-76
2022/01/29 01:16:37;;;;;;;34.00;15.70;;;;;;;4.78;90.16;101831.34;107623;1281;75138;-76
2022/01/29 01:19:04;;;;;;;32.70;15.90;;;;;;;4.79;90.34;101830.05;108097;1277;71020;-76
2022/01/29 01:21:31;;;;;;;32.50;13.70;;;;;;;4.80;90.22;101823.14;108054;1277;72191;-76
2022/01/29 01:23:57;;;;;;;33.60;16.00;;;;;;;4.82;90.34;101825.42;108046;1277;63424;-75
2022/01/29 01:26:24;;;;;;;33.80;14.10;;;;;;;4.83;90.17;101830.81;107936;1279;59557;-75
2022/01/29 01:28:51;;;;;;;29.10;13.80;;;;;;;4.85;90.21;101816.33;108127;1277;74949;-76
2022/01/29 01:31:17;;;;;;;31.90;15.50;;;;;;;4.86;90.09;101810.27;108070;1277;71373;-77
2022/01/29 01:33:46;;;;;;;37.20;15.90;;;;;;;4.87;90.01;101810.15;107811;1279;71897;-77
2022/01/29 01:36:15;;;;;;;31.30;16.00;;;;;;;4.91;89.77;101810.13;108116;1277;62155;-75
2022/01/29 01:38:48;;;;;;;34.00;15.60;;;;;;;4.92;89.97;101803.37;108100;1277;60661;-76
2022/01/29 01:41:20;;;;;;;30.50;14.40;;;;;;;4.93;89.82;101805.08;107947;1277;74079;-75
2022/01/29 01:43:46;;;;;;;26.90;12.10;;;;;;;4.95;89.68;101797.70;108082;1277;72767;-75
2022/01/29 01:46:13;;;;;;;31.90;15.10;;;;;;;4.98;89.63;101784.04;107926;1277;73966;-74
2022/01/29 01:48:40;;;;;;;35.00;15.50;;;;;;;4.99;89.70;101770.41;107913;1279;60891;-76
2022/01/29 01:51:07;;;;;;;24.90;12.90;;;;;;;5.01;89.66;101768.23;108086;1277;60300;-74
2022/01/29 01:53:35;;;;;;;25.90;13.00;;;;;;;5.02;89.65;101758.29;108063;1277;75970;-76
2022/01/29 01:56:01;;;;;;;27.80;15.10;;;;;;;5.03;89.63;101751.02;108078;1277;71372;-76
2022/01/29 01:58:28;;;;;;;30.70;14.10;;;;;;;5.04;89.71;101747.08;107936;1278;72948;-75
2022/01/29 02:00:55;;;;;;;23.30;11.50;;;;;;;5.03;90.01;101744.67;108045;1277;63506;-75
2022/01/29 02:03:22;;;;;;;27.00;13.50;;;;;;;5.05;90.09;101740.52;108069;1277;60479;-76
2022/01/29 02:05:50;;;;;;;32.00;15.40;;;;;;;5.06;90.28;101742.90;107901;1278;74745;-73
2022/01/29 02:08:17;;;;;;;32.60;14.60;;;;;;;5.07;90.46;101724.95;108043;1277;72155;-73
2022/01/29 02:10:46;;;;;;;27.70;13.60;;;;;;;5.09;90.38;101724.64;107834;1277;73670;-76
2022/01/29 02:13:12;;;;;;;24.10;11.60;;;;;;;5.10;90.43;101721.58;108115;1277;63252;-75
2022/01/29 02:15:39;;;;;;;20.80;11.50;;;;;;;5.11;90.52;101713.25;108031;1277;60664;-75
2022/01/29 02:18:12;;;;;;;25.40;13.30;;;;;;;5.10;90.48;101706.14;108080;1277;74680;-77
2022/01/29 02:20:40;;;;;;;31.90;14.30;;;;;;;5.11;90.63;101704.66;108090;1277;72468;-75
2022/01/29 02:23:07;;;;;;;23.70;11.60;;;;;;;5.11;90.71;101696.59;108071;1277;74037;-76
2022/01/29 02:25:36;;;;;;;27.60;13.00;;;;;;;5.12;90.89;101694.43;108026;1277;62365;-77
2022/01/29 02:28:08;;;;;;;27.60;13.90;;;;;;;5.13;90.90;101694.37;108046;1277;60376;-74
2022/01/29 02:30:38;;;;;;;24.90;11.80;;;;;;;5.13;90.95;101685.23;108048;1277;74630;-75
2022/01/29 02:33:10;;;;;;;23.80;11.60;;;;;;;5.13;91.09;101684.35;108059;1277;71328;-74
2022/01/29 02:35:42;;;;;;;30.50;15.60;;;;;;;5.13;91.24;101674.86;108038;1277;73144;-76
2022/01/29 02:38:11;;;;;;;31.60;16.30;;;;;;;5.13;91.60;101667.34;108057;1277;63036;-73
2022/01/29 02:40:46;;;;;;;30.00;14.40;;;;;;;5.14;91.52;101662.73;108054;1277;61442;-75
2022/01/29 02:43:24;;;;;;;30.70;15.30;;;;;;;5.12;92.17;101660.96;107901;1277;75974;-76
2022/01/29 02:45:53;;;;;;;33.20;15.50;;;;;;;5.08;92.76;101657.19;108064;1277;72350;-76
2022/01/29 02:48:20;;;;;;;28.50;12.20;;;;;;;5.05;93.64;101649.21;108088;1277;74139;-73
2022/01/29 02:50:48;;;;;;;34.20;15.70;;;;;;;5.00;94.14;101642.91;107889;1277;62965;-73
2022/01/29 02:53:15;;;;;;;28.40;15.40;;;;;;;4.97;94.72;101638.96;108041;1277;61311;-73
2022/01/29 02:55:42;;;;;;;29.80;14.90;;;;;;;4.92;95.02;101632.66;107899;1277;76057;-73
2022/01/29 02:58:09;;;;;;;29.00;14.10;;;;;;;4.87;95.45;101629.09;108068;1277;71399;-77
2022/01/29 03:00:35;;;;;;;26.90;11.40;;;;;;;4.84;96.00;101620.79;108074;1277;74538;-73
2022/01/29 03:03:02;;;;;;;30.60;16.00;;;;;;;4.80;96.68;101617.43;107911;1278;61469;-77
2022/01/29 03:05:29;;;;;;;27.20;14.30;;;;;;;4.74;97.03;101608.94;108059;1277;61390;-73
2022/01/29 03:07:56;;;;;;;20.10;11.30;;;;;;;4.72;97.41;101612.38;108028;1277;76136;-76
2022/01/29 03:10:23;;;;;;;29.20;16.00;;;;;;;4.70;97.56;101600.61;108078;1277;58526;-72
2022/01/29 03:12:52;;;;;;;29.20;15.50;;;;;;;4.68;97.89;101593.77;108047;1277;72981;-75
2022/01/29 03:15:19;;;;;;;29.40;15.50;;;;;;;4.66;98.18;101590.36;107901;1277;61419;-75
2022/01/29 03:17:45;;;;;;;27.50;14.00;;;;;;;4.65;98.48;101589.09;107907;1277;61468;-77
2022/01/29 03:20:12;;;;;;;33.00;14.60;;;;;;;4.63;98.76;101578.73;107966;1276;59596;-75
2022/01/29 03:22:39;;;;;;;19.40;10.30;;;;;;;4.62;99.17;101573.18;108098;1276;72125;-76
2022/01/29 03:25:07;;;;;;;31.00;15.20;;;;;;;4.59;99.24;101571.45;108013;1278;71610;-74
2022/01/29 03:27:33;;;;;;;27.50;13.40;;;;;;;4.58;99.43;101571.41;107877;1279;63435;-75
2022/01/29 03:30:01;;;;;;;29.50;14.10;;;;;;;4.56;99.76;101574.73;108095;1277;60581;-75
2022/01/29 03:32:28;;;;;;;29.60;14.00;;;;;;;4.55;99.97;101570.41;108051;1277;76120;-74
2022/01/29 03:34:54;;;;;;;22.40;11.80;;;;;;;4.53;99.97;101560.35;108080;1277;71457;-74
2022/01/29 03:37:21;;;;;;;30.30;13.70;;;;;;;4.53;99.97;101553.38;107880;1277;71928;-76
2022/01/29 03:39:49;;;;;;;27.60;14.70;;;;;;;4.52;100.00;101552.38;107882;1277;61456;-73
2022/01/29 03:42:16;;;;;;;20.80;12.50;;;;;;;4.53;100.00;101547.63;107881;1277;61902;-76
2022/01/29 03:44:43;;;;;;;28.80;12.10;;;;;;;4.52;100.00;101548.40;107927;1277;74569;-74
2022/01/29 03:47:10;;;;;;;22.30;11.90;;;;;;;4.51;100.00;101541.43;107997;1277;71452;-75
2022/01/29 03:49:37;;;;;;;32.50;15.70;;;;;;;4.51;100.00;101536.01;108085;1277;74255;-74
2022/01/29 03:52:04;;;;;;;30.40;13.60;;;;;;;4.52;100.00;101536.34;108074;1277;62936;-75
2022/01/29 03:54:30;;;;;;;23.30;11.70;;;;;;;4.53;100.00;101532.55;108073;1277;60677;-73
2022/01/29 03:56:57;;;;;;;27.20;14.70;;;;;;;4.52;100.00;101532.39;108008;1277;74957;-75
2022/01/29 03:59:24;;;;;;;25.30;12.70;;;;;;;4.52;100.00;101534.35;108092;1277;72626;-75
2022/01/29 04:01:50;;;;;;;26.90;13.10;;;;;;;4.53;100.00;101527.81;108083;1277;73097;-73
2022/01/29 04:04:17;;;;;;;21.50;11.20;;;;;;;4.55;100.00;101525.75;108082;1277;61425;-73
2022/01/29 04:06:44;;;;;;;24.20;12.80;;;;;;;4.55;100.00;101522.05;108074;1277;61447;-76
2022/01/29 04:09:11;;;;;;;26.50;13.00;;;;;;;4.55;100.00;101511.88;108102;1277;76040;-75
2022/01/29 04:11:39;;;;;;;25.60;12.80;;;;;;;4.55;100.00;101503.65;108059;1277;72819;-72
2022/01/29 04:14:17;;;;;;;23.60;10.60;;;;;;;4.55;100.00;101503.99;108057;1277;74285;-75
2022/01/29 04:16:44;;;;;;;25.70;11.40;;;;;;;4.55;100.00;101492.08;107938;1279;62262;-76
2022/01/29 04:19:12;;;;;;;24.50;11.80;;;;;;;4.56;100.00;101479.09;108091;1277;60454;-73
2022/01/29 04:21:41;;;;;;;25.80;12.80;;;;;;;4.55;100.00;101477.05;107713;1277;76042;-74
2022/01/29 04:24:10;;;;;;;20.70;11.40;;;;;;;4.54;100.00;101482.33;108046;1277;72410;-75
2022/01/29 04:26:37;;;;;;;25.80;12.40;;;;;;;4.55;100.00;101478.26;107973;1279;74258;-76
2022/01/29 04:29:07;;;;;;;26.80;11.20;;;;;;;4.55;100.00;101474.21;108066;1277;63735;-74
2022/01/29 04:31:55;;;;;;;23.70;11.50;;;;;;;4.55;100.00;101465.98;108085;1277;60616;-76
2022/01/29 04:34:22;;;;;;;22.30;11.20;;;;;;;4.55;100.00;101459.83;108085;1277;74737;-75
2022/01/29 04:36:48;;;;;;;18.40;10.80;;;;;;;4.56;100.00;101448.91;108116;1277;72622;-75
2022/01/29 04:39:15;;;;;;;20.00;9.90;;;;;;;4.57;100.00;101443.90;108106;1277;74078;-75
2022/01/29 04:41:42;;;;;;;21.90;11.30;;;;;;;4.60;100.00;101431.45;108098;1277;61483;-75
2022/01/29 04:44:09;;;;;;;23.80;11.70;;;;;;;4.60;100.00;101420.77;107930;1278;59165;-73
2022/01/29 04:46:35;;;;;;;27.00;12.60;;;;;;;4.58;100.00;101410.36;108151;1277;74908;-73
2022/01/29 04:49:02;;;;;;;26.50;13.80;;;;;;;4.56;100.00;101410.70;108086;1277;72297;-75
2022/01/29 04:51:29;;;;;;;22.00;11.50;;;;;;;4.57;100.00;101404.72;108019;1277;73132;-75
2022/01/29 04:53:55;;;;;;;18.70;9.60;;;;;;;4.57;100.00;101405.03;108106;1277;61905;-75
2022/01/29 04:56:22;;;;;;;21.40;11.40;;;;;;;4.58;100.00;101406.74;108143;1277;59284;-75
2022/01/29 04:58:49;;;;;;;21.40;9.70;;;;;;;4.59;100.00;101392.27;108152;1277;74987;-74
2022/01/29 05:01:15;;;;;;;26.10;12.00;;;;;;;4.60;100.00;101390.27;108132;1277;72397;-75
2022/01/29 05:03:42;;;;;;;27.70;13.60;;;;;;;4.61;100.00;101383.34;107863;1279;74688;-74
2022/01/29 05:06:10;;;;;;;21.40;10.80;;;;;;;4.62;100.00;101374.86;108137;1277;61412;-75
2022/01/29 05:08:37;;;;;;;18.40;10.40;;;;;;;4.65;100.00;101371.34;108116;1277;60648;-72
2022/01/29 05:11:05;;;;;;;26.20;12.60;;;;;;;4.68;100.00;101364.45;108113;1277;76117;-72
2022/01/29 05:13:34;;;;;;;23.30;11.20;;;;;;;4.72;100.00;101360.81;108090;1277;70763;-74
2022/01/29 05:27:08;;;;;;;22.20;11.10;;;;;;;4.88;100.00;101353.67;108029;1277;71459;-75
2022/01/29 05:29:36;;;;;;;19.40;9.80;;;;;;;4.93;100.00;101357.73;108102;1277;72906;-72
2022/01/29 05:32:08;;;;;;;16.30;9.40;;;;;;;4.97;100.00;101355.67;108033;1277;63211;-73
2022/01/29 05:34:35;;;;;;;21.60;11.30;;;;;;;5.01;100.00;101357.61;108156;1277;61139;-75
2022/01/29 05:37:02;;;;;;;18.90;9.20;;;;;;;5.04;100.00;101348.64;108115;1277;73973;-74
2022/01/29 05:39:30;;;;;;;10.60;6.40;;;;;;;5.06;100.00;101348.05;108097;1277;72989;-75
2022/01/29 05:41:58;;;;;;;17.10;9.90;;;;;;;5.09;100.00;101350.66;108089;1277;73248;-75
2022/01/29 05:44:25;;;;;;;14.50;8.80;;;;;;;5.11;100.00;101339.95;108067;1277;61949;-74
2022/01/29 05:46:52;;;;;;;15.50;7.80;;;;;;;5.15;100.00;101338.95;108112;1277;60548;-73
2022/01/29 05:49:19;;;;;;;18.50;9.60;;;;;;;5.19;100.00;101338.31;107869;1277;75991;-75
2022/01/29 05:51:45;;;;;;;15.90;8.30;;;;;;;5.22;100.00;101322.96;108116;1277;72479;-75
2022/01/29 05:54:12;;;;;;;15.70;9.20;;;;;;;5.24;100.00;101335.91;108099;1277;59121;-72
2022/01/29 05:56:38;;;;;;;15.10;8.00;;;;;;;5.27;100.00;101326.24;107986;1278;62228;-72
2022/01/29 05:59:05;;;;;;;16.70;8.90;;;;;;;5.28;100.00;101323.02;108142;1277;61702;-70
2022/01/29 06:01:32;;;;;;;18.60;9.50;;;;;;;5.29;100.00;101320.98;108059;1277;75001;-74
2022/01/29 06:03:59;;;;;;;15.50;10.80;;;;;;;5.30;100.00;101319.80;108162;1277;71727;-74
2022/01/29 06:06:25;;;;;;;15.70;9.20;;;;;;;5.34;100.00;101319.06;107862;1277;72810;-72
2022/01/29 06:08:52;;;;;;;17.30;9.20;;;;;;;5.35;100.00;101315.40;108102;1277;59037;-72
2022/01/29 06:11:19;;;;;;;17.10;8.90;;;;;;;5.37;100.00;101322.79;108088;1277;60455;-74
2022/01/29 06:13:45;;;;;;;15.50;8.40;;;;;;;5.39;100.00;101323.16;108026;1277;74929;-74
2022/01/29 06:16:12;;;;;;;18.00;10.30;;;;;;;5.42;100.00;101324.48;108080;1277;71451;-75
2022/01/29 06:18:40;;;;;;;18.80;9.90;;;;;;;5.45;100.00;101321.65;108029;1277;74453;-71
2022/01/29 06:21:09;;;;;;;14.20;9.10;;;;;;;5.46;100.00;101325.34;108040;1278;62369;-71
2022/01/29 06:23:37;;;;;;;13.50;8.70;;;;;;;5.49;100.00;101308.63;108080;1277;61791;-70
2022/01/29 06:26:06;;;;;;;15.60;8.50;;;;;;;5.51;100.00;101309.33;108118;1277;75253;-70
2022/01/29 06:28:33;;;;;;;17.90;10.00;;;;;;;5.54;100.00;101316.66;108060;1277;72685;-73
2022/01/29 06:31:00;;;;;;;16.70;9.60;;;;;;;5.56;100.00;101311.23;108016;1278;72999;-70
2022/01/29 06:33:28;;;;;;;13.70;8.00;;;;;;;5.59;100.00;101296.61;107901;1278;62200;-71
2022/01/29 06:35:54;;;;;;;13.70;8.40;;;;;;;5.61;100.00;101309.06;108116;1278;61625;-73
2022/01/29 06:38:21;;;;;;;14.50;7.70;;;;;;;5.65;100.00;101296.80;108096;1277;74983;-71
2022/01/29 06:40:48;;;;;;;12.90;7.90;;;;;;;5.68;100.00;101293.16;108122;1277;72436;-74
2022/01/29 06:43:15;;;;;;;14.50;8.30;;;;;;;5.71;100.00;101296.61;108103;1277;73954;-73
2022/01/29 06:45:44;;;;;;;14.80;9.10;;;;;;;5.74;100.00;101288.17;108149;1277;63326;-75
2022/01/29 06:48:12;;;;;;;13.10;7.00;;;;;;;5.75;100.00;101286.55;108086;1277;60652;-72
2022/01/29 06:50:39;;;;;;;15.30;8.80;;;;;;;5.77;100.00;101289.51;107786;1278;75038;-72
2022/01/29 06:53:06;;;;;;;15.40;7.80;;;;;;;5.79;100.00;101279.36;108168;1277;71726;-72
2022/01/29 06:55:34;;;;;;;15.80;9.60;;;;;;;5.79;100.00;101278.95;108010;1278;73158;-72
2022/01/29 06:58:00;;;;;;;16.00;9.60;;;;;;;5.80;100.00;101276.74;107965;1277;62112;-72
2022/01/29 07:00:47;;;;;;;15.30;9.30;;;;;;;5.81;100.00;101270.21;108091;1277;59152;-73
2022/01/29 07:03:13;;;;;;;13.70;7.90;;;;;;;5.82;100.00;101275.59;107952;1279;74641;-76
2022/01/29 07:05:40;;;;;;;17.00;10.10;;;;;;;5.83;100.00;101268.48;108107;1277;71404;-75
2022/01/29 07:08:07;;;;;;;15.80;9.10;;;;;;;5.83;100.00;101268.59;107940;1278;72925;-77
2022/01/29 07:10:34;;;;;;;14.80;9.20;;;;;;;5.84;100.00;101261.72;108077;1277;62576;-76
2022/01/29 07:13:00;;;;;;;17.20;11.00;;;;;;;5.85;100.00;101257.76;108069;1278;61772;-72
2022/01/29 07:15:27;;;;;;;17.50;10.40;;;;;;;5.86;99.99;101262.71;108122;1278;75081;-74
2022/01/29 07:17:54;;;;;;;17.40;9.80;;;;;;;5.87;99.96;101262.13;108080;1278;72034;-75
2022/01/29 07:20:23;;;;;;;20.10;10.70;;;;;;;5.89;99.98;101243.38;108099;1278;71998;-76
2022/01/29 07:22:50;;;;;;;16.20;10.40;;;;;;;5.90;99.93;101244.02;108070;1277;61927;-74
2022/01/29 07:25:17;;;;;;;21.30;11.30;;;;;;;5.90;99.93;101250.11;108064;1277;59904;-74
2022/01/29 07:27:44;;;;;;;17.40;9.00;;;;;;;5.93;99.94;101249.14;107771;1278;250098;-78
2022/01/29 07:30:11;;;;;;;17.50;9.60;;;;;;;5.95;99.91;101241.46;108075;1278;71272;-77
2022/01/29 07:32:45;;;;;;;15.60;9.70;;;;;;;5.97;99.87;101252.19;108032;1278;73067;-77
2022/01/29 07:35:14;;;;;;;17.70;10.30;;;;;;;5.99;99.88;101244.61;108093;1277;62296;-77
2022/01/29 07:37:41;;;;;;;19.30;9.80;;;;;;;6.00;99.80;101242.26;108004;1279;59147;-75
2022/01/29 07:40:08;;;;;;;16.90;10.10;;;;;;;6.02;99.79;101233.88;108013;1277;74805;-77
2022/01/29 07:42:36;;;;;;;17.90;10.40;;;;;;;6.03;99.70;101236.03;107826;1279;72530;-77
2022/01/29 07:45:03;;;;;;;14.50;8.80;;;;;;;6.04;99.71;101221.92;108044;1277;72081;-78
2022/01/29 07:47:29;;;;;;;15.50;9.40;;;;;;;6.06;99.52;101225.14;108052;1277;62415;-77
2022/01/29 07:49:56;;;;;;;17.60;10.40;;;;;;;6.06;99.57;101216.25;108044;1278;60744;-80
2022/01/29 07:52:23;;;;;;;15.70;10.50;;;;;;;6.07;99.38;101233.59;108067;1279;74713;-78
2022/01/29 07:54:50;;;;;;;14.00;8.10;;;;;;;6.10;99.52;101226.86;107892;1278;72471;-78
2022/01/29 07:57:16;;;;;;;14.00;8.20;;;;;;;6.11;99.28;101217.14;107941;1279;74179;-77
2022/01/29 07:59:43;;;;;;;19.10;9.60;;;;;;;6.12;99.46;101213.34;108036;1278;62225;-78
2022/01/29 08:02:10;;;;;;;14.20;9.20;;;;;;;6.12;99.47;101212.40;107985;1277;60704;-77
2022/01/29 08:04:37;;;;;;;18.50;10.60;;;;;;;6.13;99.36;101201.97;107842;1279;74705;-77
2022/01/29 08:07:04;;;;;;;15.30;9.00;;;;;;;6.15;99.18;101203.45;108050;1278;71712;-77
2022/01/29 08:09:30;;;;;;;13.50;8.60;;;;;;;6.17;99.46;101201.52;108099;1278;58944;-81
2022/01/29 08:11:57;;;;;;;14.30;9.60;;;;;;;6.19;99.40;101198.29;107851;1278;63124;-79
2022/01/29 08:14:23;;;;;;;15.80;8.50;;;;;;;6.24;98.95;101198.80;108021;1279;58409;-78
2022/01/29 08:16:50;;;;;;;14.40;9.10;;;;;;;6.25;98.93;101204.32;108147;1278;75989;-81
2022/01/29 08:19:17;;;;;;;14.30;9.40;;;;;;;6.26;98.80;101230.89;108065;1279;71390;-77
2022/01/29 08:21:43;;;;;;;14.20;9.40;;;;;;;6.30;98.82;101200.52;108101;1277;74082;-78
2022/01/29 08:24:10;;;;;;;14.20;8.60;;;;;;;6.32;98.73;101191.05;108154;1278;58986;-80
2022/01/29 08:26:37;;;;;;;13.80;8.70;;;;;;;6.30;98.60;101200.55;108107;1278;59089;-80
2022/01/29 08:29:03;;;;;;;13.90;8.10;;;;;;;6.36;98.52;101195.77;108091;1277;75098;-75
2022/01/29 08:31:30;;;;;;;15.80;8.10;;;;;;;6.38;98.32;101196.98;108098;1278;71419;-77
2022/01/29 08:33:57;;;;;;;12.10;7.50;;;;;;;6.40;98.32;101201.55;107966;1278;74061;-79
2022/01/29 08:36:24;;;;;;;12.80;7.70;;;;;;;6.43;98.30;101199.04;108022;1278;63425;-77
2022/01/29 08:38:50;;;;;;;14.50;8.10;;;;;;;6.45;98.22;101185.81;108101;1279;61622;-75
2022/01/29 08:41:17;;;;;;;15.50;8.80;;;;;;;6.47;97.94;101200.80;108118;1278;74879;-79
2022/01/29 08:43:44;;;;;;;13.30;7.90;;;;;;;6.48;98.24;101195.95;108121;1278;72641;-80
2022/01/29 08:46:10;;;;;;;12.10;7.40;;;;;;;6.48;98.30;101201.55;108104;1277;73977;-78
2022/01/29 08:48:37;;;;;;;14.00;7.90;;;;;;;6.50;98.24;101207.53;108087;1277;62533;-78
2022/01/29 08:51:04;;;;;;;20.40;10.70;;;;;;;6.56;98.40;101193.87;108041;1278;61631;-79
2022/01/29 08:53:31;;;;;;;13.50;8.30;;;;;;;6.59;98.07;101194.42;108116;1278;75062;-80
2022/01/29 08:55:58;;;;;;;14.40;8.70;;;;;;;6.60;98.13;101189.47;107858;1279;71504;-81
2022/01/29 08:58:24;;;;;;;12.60;7.40;;;;;;;6.59;98.48;101181.66;107923;1277;72035;-81
2022/01/29 09:00:51;;;;;;;20.10;9.40;;;;;;;6.58;98.81;101184.39;108118;1277;59387;-81
2022/01/29 09:03:18;;;;;;;15.00;9.60;;;;;;;6.57;98.96;101183.61;108123;1278;60578;-81
2022/01/29 09:05:46;;;;;;;15.40;9.40;;;;;;;6.57;99.13;101167.39;107903;1278;75514;-85
2022/01/29 09:08:15;;;;;;;17.10;9.20;;;;;;;6.57;99.47;101160.02;108096;1278;71394;-84
2022/01/29 09:10:42;;;;;;;14.00;8.20;;;;;;;6.60;99.58;101168.55;107894;1278;72927;-82
2022/01/29 09:13:11;;;;;;;16.40;8.60;;;;;;;6.61;99.44;101161.23;108133;1277;63355;-81
2022/01/29 09:15:38;;;;;;;16.60;8.80;;;;;;;6.63;99.76;101155.27;108184;1277;60792;-83
2022/01/29 09:18:05;;;;;;;12.90;8.20;;;;;;;6.64;99.94;101155.23;108132;1278;75568;-81
2022/01/29 09:20:31;;;;;;;12.00;7.00;;;;;;;6.65;99.75;101162.46;108125;1279;71429;-83
2022/01/29 09:22:58;;;;;;;16.10;8.50;;;;;;;6.68;99.67;101144.47;108156;1277;59159;-82
2022/01/29 09:25:26;;;;;;;17.20;7.90;;;;;;;6.71;99.63;101149.77;107913;1278;63433;-83
2022/01/29 09:27:53;;;;;;;14.80;7.70;;;;;;;6.75;99.58;101152.77;108095;1278;61521;-80
2022/01/29 09:30:20;;;;;;;10.90;6.40;;;;;;;6.76;99.44;101155.64;108177;1277;74823;-83
2022/01/29 09:32:48;;;;;;;12.50;6.70;;;;;;;6.78;99.53;101153.05;108170;1277;71239;-83
2022/01/29 09:35:17;;;;;;;11.60;6.90;;;;;;;6.80;99.24;101147.74;108040;1278;73158;-80
2022/01/29 09:37:43;;;;;;;12.00;6.80;;;;;;;6.82;99.20;101152.15;108162;1277;62036;-81
2022/01/29 09:40:10;;;;;;;10.00;6.00;;;;;;;6.84;99.54;101146.72;108191;1277;58866;-82
2022/01/29 09:42:39;;;;;;;12.30;7.10;;;;;;;6.84;99.54;101151.98;108133;1277;74318;-84
2022/01/29 09:45:08;;;;;;;13.10;7.80;;;;;;;6.86;99.77;101145.29;108094;1279;72817;-84
2022/01/29 09:47:36;;;;;;;12.40;6.80;;;;;;;6.87;99.83;101145.17;108135;1270;73609;-81
2022/01/29 09:50:04;;;;;;;12.70;7.60;;;;;;;6.87;99.88;101137.44;108069;1273;64752;-83
2022/01/29 09:52:30;;;;;;;10.80;6.10;;;;;;;6.89;99.99;101138.98;108208;1277;61981;-85
2022/01/29 09:54:58;;;;;;;14.00;9.10;;;;;;;6.91;99.99;101131.41;108247;1277;75113;-85
2022/01/29 09:57:25;;;;;;;11.20;5.90;;;;;;;6.94;99.97;101126.73;108209;1277;71344;-85
2022/01/29 09:59:55;;;;;;;13.30;6.90;;;;;;;6.95;99.99;101112.33;108205;1277;76567;-81
2022/01/29 10:02:24;;;;;;;13.00;5.50;;;;;;;6.98;99.81;101139.59;108111;1279;63508;-85
2022/01/29 10:04:56;;;;;;;14.30;7.30;;;;;;;7.02;100.00;101117.06;108110;1266;60709;-84
2022/01/29 10:07:25;;;;;;;11.30;6.70;;;;;;;7.06;99.62;101112.52;108117;1277;77403;-80
2022/01/29 10:09:53;;;;;;;9.40;5.70;;;;;;;7.11;99.38;101105.92;108220;1276;74127;-80
2022/01/29 10:12:33;;;;;;;9.40;5.60;;;;;;;7.16;98.76;101099.80;108025;1279;73001;-83
2022/01/29 10:15:06;;;;;;;10.20;5.60;;;;;;;7.22;98.58;101100.15;107963;1279;63416;-83
2022/01/29 10:17:55;;;;;;;9.80;5.30;;;;;;;7.28;98.35;101091.49;107918;1276;61657;-80
2022/01/29 10:21:01;;;;;;;;;;;;;;;;;;;;;
2022/01/29 10:23:30;;;;;;;9.20;4.70;;;;;;;7.40;97.38;101073.64;108345;1276;71518;-79
2022/01/29 10:25:57;;;;;;;8.50;4.30;;;;;;;7.48;97.42;101069.91;108255;1276;74050;-79
2022/01/29 10:28:37;;;;;;;8.40;4.70;;;;;;;7.54;96.51;101068.77;108316;1276;62188;-80
2022/01/29 10:31:08;;;;;;;8.80;4.90;;;;;;;7.63;96.31;101063.14;108372;1276;59975;-79
2022/01/29 10:33:40;;;;;;;8.50;4.20;;;;;;;7.68;95.80;101062.13;108290;1276;76062;-79
2022/01/29 10:36:22;;;;;;;7.70;3.40;;;;;;;7.73;95.59;101066.73;108362;1276;71294;-79
2022/01/29 10:38:55;;;;;;;7.90;4.40;;;;;;;7.76;95.24;101054.29;108466;1276;74515;-79
2022/01/29 10:41:32;;;;;;;5.60;2.80;;;;;;;7.79;95.06;101049.16;108404;1276;63603;-79
2022/01/29 10:46:43;;;;;;;6.20;3.60;;;;;;;7.80;95.12;101044.85;108344;1276;75875;-79
2022/01/29 10:49:50;;;;;;;4.80;3.30;;;;;;;7.79;94.95;101050.05;108464;1276;72675;-79
2022/01/29 10:52:33;;;;;;;6.70;3.70;;;;;;;7.79;94.82;101039.33;108351;1276;73493;-79
2022/01/29 10:55:09;;;;;;;5.00;3.60;;;;;;;7.80;95.10;101037.95;108450;1276;62293;-80
2022/01/29 10:57:57;;;;;;;6.20;3.10;;;;;;;7.81;95.11;101027.13;108312;1276;60575;-80
2022/01/29 11:00:30;;;;;;;3.50;2.60;;;;;;;7.85;94.70;101026.08;108394;1276;74960;-80
2022/01/29 11:03:00;;;;;;;4.30;2.20;;;;;;;7.86;94.50;101014.11;108440;1276;71508;-80
2022/01/29 11:05:31;;;;;;;4.20;2.50;;;;;;;7.87;94.54;101029.35;108327;1276;73038;-80
2022/01/29 11:08:01;;;;;;;5.10;2.80;;;;;;;7.90;94.59;101011.48;108472;1276;62310;-80
2022/01/29 11:10:27;;;;;;;4.70;2.80;;;;;;;7.92;94.74;100998.39;108318;1276;61768;-79
2022/01/29 11:12:55;;;;;;;5.60;2.70;;;;;;;7.94;94.41;101002.27;108427;1276;73741;-79
2022/01/29 11:15:23;;;;;;;4.90;2.80;;;;;;;7.96;94.44;101000.69;108352;1277;73180;-80
2022/01/29 11:17:50;;;;;;;5.50;2.60;;;;;;;7.99;94.22;100993.84;108055;1276;76227;-79
2022/01/29 11:20:18;;;;;;;4.40;2.90;;;;;;;7.99;94.39;101002.88;108299;1276;62245;-79
2022/01/29 11:22:48;;;;;;;4.10;2.60;;;;;;;8.03;94.07;100977.92;108160;1279;60621;-79
2022/01/29 11:25:20;;;;;;;5.70;2.30;;;;;;;8.09;94.03;100976.00;108321;1277;74863;-79
2022/01/29 11:27:47;;;;;;;5.20;2.90;;;;;;;8.15;93.95;100961.11;108119;1278;70061;-79
2022/01/29 11:30:17;;;;;;;5.10;2.90;;;;;;;8.22;93.32;100952.48;108368;1276;74565;-79